sensor_id;sensor_type;location;lat;lon;timestamp;pressure;altitude;pressure_sealevel;temperature
70668;BMP280;58242;51.250;-1.118;2023-09-19T00:01:45;99486.00;;;19.02
70668;BMP280;58242;51.250;-1.118;2023-09-19T00:04:11;99487.16;;;19.01
70668;BMP280;58242;51.250;-1.118;2023-09-19T00:06:37;99479.03;;;19.01
70668;BMP280;58242;51.250;-1.118;2023-09-19T00:09:03;99488.31;;;19.00
70668;BMP280;58242;51.250;-1.118;2023-09-19T00:11:29;99484.09;;;18.99
70668;BMP280;58242;51.250;-1.118;2023-09-19T00:13:54;99479.81;;;18.98
70668;BMP280;58242;51.250;-1.118;2023-09-19T00:16:20;99479.06;;;18.98
70668;BMP280;58242;51.250;-1.118;2023-09-19T00:18:46;99476.72;;;18.96
70668;BMP280;58242;51.250;-1.118;2023-09-19T00:21:11;99479.06;;;18.94
70668;BMP280;58242;51.250;-1.118;2023-09-19T00:23:37;99482.94;;;18.93
70668;BMP280;58242;51.250;-1.118;2023-09-19T00:26:03;99483.34;;;18.92
70668;BMP280;58242;51.250;-1.118;2023-09-19T00:28:29;99486.44;;;18.90
70668;BMP280;58242;51.250;-1.118;2023-09-19T00:30:55;99491.44;;;18.88
70668;BMP280;58242;51.250;-1.118;2023-09-19T00:33:21;99489.16;;;18.87
70668;BMP280;58242;51.250;-1.118;2023-09-19T00:35:54;99488.38;;;18.86
70668;BMP280;58242;51.250;-1.118;2023-09-19T00:38:21;99475.97;;;18.85
70668;BMP280;58242;51.250;-1.118;2023-09-19T00:40:48;99487.97;;;18.84
70668;BMP280;58242;51.250;-1.118;2023-09-19T00:43:15;99485.25;;;18.84
70668;BMP280;58242;51.250;-1.118;2023-09-19T00:45:43;99482.19;;;18.83
70668;BMP280;58242;51.250;-1.118;2023-09-19T00:48:09;99482.97;;;18.83
70668;BMP280;58242;51.250;-1.118;2023-09-19T00:50:35;99489.53;;;18.82
70668;BMP280;58242;51.250;-1.118;2023-09-19T00:53:01;99498.06;;;18.81
70668;BMP280;58242;51.250;-1.118;2023-09-19T00:55:28;99502.69;;;18.84
70668;BMP280;58242;51.250;-1.118;2023-09-19T00:57:56;99505.41;;;18.80
70668;BMP280;58242;51.250;-1.118;2023-09-19T01:00:21;99501.94;;;18.80
70668;BMP280;58242;51.250;-1.118;2023-09-19T01:02:48;99494.97;;;18.79
70668;BMP280;58242;51.250;-1.118;2023-09-19T01:05:13;99503.47;;;18.77
70668;BMP280;58242;51.250;-1.118;2023-09-19T01:07:39;99500.00;;;18.77
70668;BMP280;58242;51.250;-1.118;2023-09-19T01:10:11;99494.59;;;18.77
70668;BMP280;58242;51.250;-1.118;2023-09-19T01:20:57;99497.69;;;18.72
70668;BMP280;58242;51.250;-1.118;2023-09-19T01:29:26;99482.19;;;18.66
70668;BMP280;58242;51.250;-1.118;2023-09-19T01:32:01;99484.53;;;18.67
70668;BMP280;58242;51.250;-1.118;2023-09-19T01:37:14;99480.25;;;18.66
70668;BMP280;58242;51.250;-1.118;2023-09-19T01:39:44;99484.53;;;18.67
70668;BMP280;58242;51.250;-1.118;2023-09-19T01:42:21;99484.53;;;18.67
70668;BMP280;58242;51.250;-1.118;2023-09-19T01:44:57;99486.09;;;18.68
70668;BMP280;58242;51.250;-1.118;2023-09-19T01:47:32;99480.66;;;18.68
70668;BMP280;58242;51.250;-1.118;2023-09-19T01:50:03;99473.69;;;18.67
70668;BMP280;58242;51.250;-1.118;2023-09-19T01:52:36;99480.25;;;18.69
70668;BMP280;58242;51.250;-1.118;2023-09-19T01:55:09;99483.38;;;18.68
70668;BMP280;58242;51.250;-1.118;2023-09-19T01:57:42;99484.94;;;18.69
70668;BMP280;58242;51.250;-1.118;2023-09-19T02:00:12;99487.63;;;18.69
70668;BMP280;58242;51.250;-1.118;2023-09-19T02:02:39;99491.09;;;18.69
70668;BMP280;58242;51.250;-1.118;2023-09-19T02:05:05;99495.34;;;18.70
70668;BMP280;58242;51.250;-1.118;2023-09-19T02:07:31;99487.22;;;18.70
70668;BMP280;58242;51.250;-1.118;2023-09-19T02:09:57;99487.22;;;18.70
70668;BMP280;58242;51.250;-1.118;2023-09-19T02:12:25;99486.84;;;18.68
70668;BMP280;58242;51.250;-1.118;2023-09-19T02:14:50;99488.78;;;18.68
70668;BMP280;58242;51.250;-1.118;2023-09-19T02:17:15;99479.13;;;18.67
70668;BMP280;58242;51.250;-1.118;2023-09-19T02:19:42;99480.25;;;18.66
70668;BMP280;58242;51.250;-1.118;2023-09-19T02:22:07;99476.00;;;18.65
70668;BMP280;58242;51.250;-1.118;2023-09-19T02:24:36;99482.94;;;18.66
70668;BMP280;58242;51.250;-1.118;2023-09-19T02:27:02;99486.06;;;18.65
70668;BMP280;58242;51.250;-1.118;2023-09-19T02:29:29;99481.41;;;18.65
70668;BMP280;58242;51.250;-1.118;2023-09-19T02:31:55;99486.06;;;18.65
70668;BMP280;58242;51.250;-1.118;2023-09-19T02:34:21;99486.84;;;18.65
70668;BMP280;58242;51.250;-1.118;2023-09-19T02:36:46;99489.53;;;18.65
70668;BMP280;58242;51.250;-1.118;2023-09-19T02:39:12;99477.16;;;18.64
70668;BMP280;58242;51.250;-1.118;2023-09-19T02:41:37;99485.28;;;18.64
70668;BMP280;58242;51.250;-1.118;2023-09-19T02:44:03;99482.19;;;18.66
70668;BMP280;58242;51.250;-1.118;2023-09-19T02:46:35;99484.53;;;18.67
70668;BMP280;58242;51.250;-1.118;2023-09-19T02:49:02;99475.59;;;18.66
70668;BMP280;58242;51.250;-1.118;2023-09-19T02:51:30;99480.66;;;18.68
70668;BMP280;58242;51.250;-1.118;2023-09-19T02:53:56;99482.97;;;18.69
70668;BMP280;58242;51.250;-1.118;2023-09-19T02:56:21;99479.88;;;18.71
70668;BMP280;58242;51.250;-1.118;2023-09-19T02:58:47;99474.88;;;18.73
70668;BMP280;58242;51.250;-1.118;2023-09-19T03:01:13;99475.63;;;18.73
70668;BMP280;58242;51.250;-1.118;2023-09-19T03:03:39;99472.53;;;18.75
70668;BMP280;58242;51.250;-1.118;2023-09-19T03:06:06;99471.38;;;18.76
70668;BMP280;58242;51.250;-1.118;2023-09-19T03:08:33;99461.31;;;18.76
70668;BMP280;58242;51.250;-1.118;2023-09-19T03:11:01;99467.50;;;18.77
70668;BMP280;58242;51.250;-1.118;2023-09-19T03:13:27;99462.84;;;18.77
70668;BMP280;58242;51.250;-1.118;2023-09-19T03:15:54;99458.19;;;18.78
70668;BMP280;58242;51.250;-1.118;2023-09-19T03:18:21;99462.09;;;18.77
70668;BMP280;58242;51.250;-1.118;2023-09-19T03:20:57;99446.59;;;18.77
70668;BMP280;58242;51.250;-1.118;2023-09-19T03:23:25;99449.72;;;18.76
70668;BMP280;58242;51.250;-1.118;2023-09-19T03:25:51;99444.28;;;18.76
70668;BMP280;58242;51.250;-1.118;2023-09-19T03:28:17;99446.22;;;18.75
70668;BMP280;58242;51.250;-1.118;2023-09-19T03:30:43;99435.00;;;18.73
70668;BMP280;58242;51.250;-1.118;2023-09-19T03:33:09;99434.25;;;18.73
70668;BMP280;58242;51.250;-1.118;2023-09-19T03:35:37;99427.28;;;18.72
70668;BMP280;58242;51.250;-1.118;2023-09-19T03:38:03;99420.31;;;18.71
70668;BMP280;58242;51.250;-1.118;2023-09-19T03:40:29;99423.81;;;18.71
70668;BMP280;58242;51.250;-1.118;2023-09-19T03:42:55;99419.53;;;18.70
70668;BMP280;58242;51.250;-1.118;2023-09-19T03:45:20;99412.56;;;18.69
70668;BMP280;58242;51.250;-1.118;2023-09-19T03:47:45;99411.84;;;18.69
70668;BMP280;58242;51.250;-1.118;2023-09-19T03:50:13;99406.41;;;18.69
70668;BMP280;58242;51.250;-1.118;2023-09-19T03:52:43;99407.56;;;18.68
70668;BMP280;58242;51.250;-1.118;2023-09-19T03:55:08;99400.59;;;18.67
70668;BMP280;58242;51.250;-1.118;2023-09-19T03:57:35;99391.31;;;18.68
70668;BMP280;58242;51.250;-1.118;2023-09-19T04:00:01;99398.69;;;18.67
70668;BMP280;58242;51.250;-1.118;2023-09-19T04:02:26;99382.44;;;18.67
70668;BMP280;58242;51.250;-1.118;2023-09-19T04:04:58;99384.38;;;18.67
70668;BMP280;58242;51.250;-1.118;2023-09-19T04:07:23;99366.19;;;18.67
70668;BMP280;58242;51.250;-1.118;2023-09-19T04:09:51;99368.50;;;18.69
70668;BMP280;58242;51.250;-1.118;2023-09-19T04:12:18;99360.38;;;18.72
70668;BMP280;58242;51.250;-1.118;2023-09-19T04:14:43;99355.75;;;18.73
70668;BMP280;58242;51.250;-1.118;2023-09-19T04:17:09;99349.53;;;18.76
70668;BMP280;58242;51.250;-1.118;2023-09-19T04:19:35;99359.56;;;18.79
70668;BMP280;58242;51.250;-1.118;2023-09-19T04:22:00;99361.09;;;18.83
70668;BMP280;58242;51.250;-1.118;2023-09-19T04:24:26;99355.28;;;18.84
70668;BMP280;58242;51.250;-1.118;2023-09-19T04:26:51;99356.81;;;18.89
70668;BMP280;58242;51.250;-1.118;2023-09-19T04:29:17;99357.97;;;18.91
70668;BMP280;58242;51.250;-1.118;2023-09-19T04:31:44;99353.69;;;18.94
70668;BMP280;58242;51.250;-1.118;2023-09-19T04:34:10;99353.69;;;18.97
70668;BMP280;58242;51.250;-1.118;2023-09-19T04:36:39;99360.66;;;18.98
70668;BMP280;58242;51.250;-1.118;2023-09-19T04:39:05;99357.94;;;19.01
70668;BMP280;58242;51.250;-1.118;2023-09-19T04:41:30;99355.97;;;19.05
70668;BMP280;58242;51.250;-1.118;2023-09-19T04:43:56;99349.38;;;19.10
70668;BMP280;58242;51.250;-1.118;2023-09-19T04:46:21;99351.28;;;19.13
70668;BMP280;58242;51.250;-1.118;2023-09-19T04:48:46;99349.69;;;19.18
70668;BMP280;58242;51.250;-1.118;2023-09-19T04:51:12;99354.72;;;19.23
70668;BMP280;58242;51.250;-1.118;2023-09-19T04:53:38;99351.19;;;19.26
70668;BMP280;58242;51.250;-1.118;2023-09-19T04:56:04;99354.66;;;19.30
70668;BMP280;58242;51.250;-1.118;2023-09-19T04:58:31;99352.69;;;19.34
70668;BMP280;58242;51.250;-1.118;2023-09-19T05:00:57;99368.19;;;19.37
70668;BMP280;58242;51.250;-1.118;2023-09-19T05:03:22;99357.72;;;19.39
70668;BMP280;58242;51.250;-1.118;2023-09-19T05:05:48;99353.03;;;19.43
70668;BMP280;58242;51.250;-1.118;2023-09-19T05:08:14;99358.06;;;19.48
70668;BMP280;58242;51.250;-1.118;2023-09-19T05:10:40;99353.00;;;19.50
70668;BMP280;58242;51.250;-1.118;2023-09-19T05:13:05;99354.19;;;19.52
70668;BMP280;58242;51.250;-1.118;2023-09-19T05:15:33;99337.13;;;19.55
70668;BMP280;58242;51.250;-1.118;2023-09-19T05:17:58;99339.81;;;19.58
70668;BMP280;58242;51.250;-1.118;2023-09-19T05:20:24;99337.06;;;19.62
70668;BMP280;58242;51.250;-1.118;2023-09-19T05:23:05;99340.13;;;19.64
70668;BMP280;58242;51.250;-1.118;2023-09-19T05:25:35;99344.00;;;19.66
70668;BMP280;58242;51.250;-1.118;2023-09-19T05:28:08;99334.28;;;19.69
70668;BMP280;58242;51.250;-1.118;2023-09-19T05:30:33;99336.63;;;19.70
70668;BMP280;58242;51.250;-1.118;2023-09-19T05:33:01;99335.81;;;19.73
70668;BMP280;58242;51.250;-1.118;2023-09-19T05:35:27;99335.41;;;19.78
70668;BMP280;58242;51.250;-1.118;2023-09-19T05:37:53;99326.81;;;19.83
70668;BMP280;58242;51.250;-1.118;2023-09-19T05:40:20;99336.88;;;19.86
70668;BMP280;58242;51.250;-1.118;2023-09-19T05:42:46;99337.22;;;19.87
70668;BMP280;58242;51.250;-1.118;2023-09-19T05:45:12;99335.69;;;19.90
70668;BMP280;58242;51.250;-1.118;2023-09-19T05:47:41;99329.88;;;19.88
70668;BMP280;58242;51.250;-1.118;2023-09-19T05:50:08;99316.69;;;19.87
70668;BMP280;58242;51.250;-1.118;2023-09-19T05:52:35;99310.53;;;19.86
70668;BMP280;58242;51.250;-1.118;2023-09-19T05:55:00;99308.97;;;19.85
70668;BMP280;58242;51.250;-1.118;2023-09-19T05:57:25;99308.97;;;19.85
70668;BMP280;58242;51.250;-1.118;2023-09-19T05:59:51;99309.75;;;19.86
70668;BMP280;58242;51.250;-1.118;2023-09-19T06:02:16;99305.84;;;19.87
70668;BMP280;58242;51.250;-1.118;2023-09-19T06:04:41;99303.91;;;19.87
70668;BMP280;58242;51.250;-1.118;2023-09-19T06:07:07;99307.00;;;19.89
70668;BMP280;58242;51.250;-1.118;2023-09-19T06:09:32;99301.16;;;19.90
70668;BMP280;58242;51.250;-1.118;2023-09-19T06:11:58;99296.50;;;19.91
70668;BMP280;58242;51.250;-1.118;2023-09-19T06:14:28;99303.88;;;19.90
70668;BMP280;58242;51.250;-1.118;2023-09-19T06:16:53;99298.06;;;19.92
70668;BMP280;58242;51.250;-1.118;2023-09-19T06:19:19;99294.97;;;19.93
70668;BMP280;58242;51.250;-1.118;2023-09-19T06:21:47;99287.19;;;19.95
70668;BMP280;58242;51.250;-1.118;2023-09-19T06:24:13;99287.13;;;19.99
70668;BMP280;58242;51.250;-1.118;2023-09-19T06:26:38;99288.28;;;20.01
70668;BMP280;58242;51.250;-1.118;2023-09-19T06:29:03;99288.66;;;20.03
70668;BMP280;58242;51.250;-1.118;2023-09-19T06:31:32;99283.97;;;20.07
70668;BMP280;58242;51.250;-1.118;2023-09-19T06:33:57;99287.03;;;20.09
70668;BMP280;58242;51.250;-1.118;2023-09-19T06:36:23;99289.31;;;20.14
70668;BMP280;58242;51.250;-1.118;2023-09-19T06:38:49;99285.78;;;20.17
70668;BMP280;58242;51.250;-1.118;2023-09-19T06:41:16;99287.28;;;20.21
70668;BMP280;58242;51.250;-1.118;2023-09-19T06:43:42;99280.69;;;20.22
70668;BMP280;58242;51.250;-1.118;2023-09-19T06:46:07;99287.69;;;20.23
70668;BMP280;58242;51.250;-1.118;2023-09-19T06:48:33;99275.22;;;20.25
70668;BMP280;58242;51.250;-1.118;2023-09-19T06:50:59;99262.03;;;20.27
70668;BMP280;58242;51.250;-1.118;2023-09-19T06:53:30;99275.97;;;20.29
70668;BMP280;58242;51.250;-1.118;2023-09-19T06:55:57;99264.31;;;20.32
70668;BMP280;58242;51.250;-1.118;2023-09-19T06:58:22;99267.41;;;20.34
70668;BMP280;58242;51.250;-1.118;2023-09-19T07:00:48;99269.31;;;20.37
70668;BMP280;58242;51.250;-1.118;2023-09-19T07:03:15;99269.25;;;20.40
70668;BMP280;58242;51.250;-1.118;2023-09-19T07:05:44;99269.66;;;20.42
70668;BMP280;58242;51.250;-1.118;2023-09-19T07:08:10;99263.75;;;20.47
70668;BMP280;58242;51.250;-1.118;2023-09-19T07:10:41;99251.84;;;20.38
70668;BMP280;58242;51.250;-1.118;2023-09-19T07:13:12;99271.59;;;20.42
70668;BMP280;58242;51.250;-1.118;2023-09-19T07:15:38;99274.31;;;20.42
70668;BMP280;58242;51.250;-1.118;2023-09-19T07:18:06;99271.25;;;20.37
70668;BMP280;58242;51.250;-1.118;2023-09-19T07:20:32;99261.22;;;20.34
70668;BMP280;58242;51.250;-1.118;2023-09-19T07:22:59;99267.47;;;20.31
70668;BMP280;58242;51.250;-1.118;2023-09-19T07:25:26;99244.19;;;20.30
70668;BMP280;58242;51.250;-1.118;2023-09-19T07:27:51;99238.78;;;20.30
70668;BMP280;58242;51.250;-1.118;2023-09-19T07:30:17;99236.41;;;20.28
70668;BMP280;58242;51.250;-1.118;2023-09-19T07:32:42;99251.19;;;20.31
70668;BMP280;58242;51.250;-1.118;2023-09-19T07:35:08;99250.34;;;20.34
70668;BMP280;58242;51.250;-1.118;2023-09-19T07:37:34;99256.91;;;20.36
70668;BMP280;58242;51.250;-1.118;2023-09-19T07:40:00;99256.88;;;20.39
70668;BMP280;58242;51.250;-1.118;2023-09-19T07:42:26;99244.41;;;20.45
70668;BMP280;58242;51.250;-1.118;2023-09-19T07:44:52;99242.00;;;20.51
70668;BMP280;58242;51.250;-1.118;2023-09-19T07:47:19;99242.31;;;20.56
70668;BMP280;58242;51.250;-1.118;2023-09-19T07:49:47;99232.13;;;20.63
70668;BMP280;58242;51.250;-1.118;2023-09-19T07:52:12;99246.44;;;20.67
70668;BMP280;58242;51.250;-1.118;2023-09-19T07:54:38;99244.44;;;20.71
70668;BMP280;58242;51.250;-1.118;2023-09-19T07:57:07;99245.94;;;20.75
70668;BMP280;58242;51.250;-1.118;2023-09-19T07:59:32;99245.91;;;20.79
70668;BMP280;58242;51.250;-1.118;2023-09-19T08:01:58;99249.69;;;20.85
70668;BMP280;58242;51.250;-1.118;2023-09-19T08:04:23;99260.16;;;20.86
70668;BMP280;58242;51.250;-1.118;2023-09-19T08:06:51;99251.16;;;20.89
70668;BMP280;58242;51.250;-1.118;2023-09-19T08:09:17;99266.66;;;20.92
70668;BMP280;58242;51.250;-1.118;2023-09-19T08:11:48;99264.34;;;20.90
70668;BMP280;58242;51.250;-1.118;2023-09-19T08:14:15;99258.16;;;20.90
70668;BMP280;58242;51.250;-1.118;2023-09-19T08:16:41;99263.97;;;20.89
70668;BMP280;58242;51.250;-1.118;2023-09-19T08:19:09;99256.25;;;20.87
70668;BMP280;58242;51.250;-1.118;2023-09-19T08:21:35;99254.00;;;20.82
70668;BMP280;58242;51.250;-1.118;2023-09-19T08:24:01;99225.34;;;20.78
70668;BMP280;58242;51.250;-1.118;2023-09-19T08:26:29;99240.47;;;20.79
70668;BMP280;58242;51.250;-1.118;2023-09-19T08:28:55;99234.63;;;20.80
70668;BMP280;58242;51.250;-1.118;2023-09-19T08:31:20;99246.22;;;20.81
70668;BMP280;58242;51.250;-1.118;2023-09-19T08:33:46;99252.38;;;20.85
70668;BMP280;58242;51.250;-1.118;2023-09-19T08:36:14;99237.19;;;20.90
70668;BMP280;58242;51.250;-1.118;2023-09-19T08:38:40;99258.88;;;20.94
70668;BMP280;58242;51.250;-1.118;2023-09-19T08:41:07;99246.41;;;20.96
70668;BMP280;58242;51.250;-1.118;2023-09-19T08:43:33;99238.63;;;20.98
70668;BMP280;58242;51.250;-1.118;2023-09-19T08:48:31;99240.88;;;21.03
70668;BMP280;58242;51.250;-1.118;2023-09-19T08:51:07;99257.06;;;21.13
70668;BMP280;58242;51.250;-1.118;2023-09-19T08:54:08;99242.97;;;21.22
70668;BMP280;58242;51.250;-1.118;2023-09-19T08:56:29;99265.25;;;21.36
70668;BMP280;58242;51.250;-1.118;2023-09-19T08:58:58;99269.25;;;21.54
70668;BMP280;58242;51.250;-1.118;2023-09-19T09:01:25;99251.50;;;21.68
70668;BMP280;58242;51.250;-1.118;2023-09-19T09:03:56;99265.06;;;21.94
70668;BMP280;58242;51.250;-1.118;2023-09-19T09:06:23;99263.91;;;22.14
70668;BMP280;58242;51.250;-1.118;2023-09-19T09:08:50;99243.41;;;22.28
70668;BMP280;58242;51.250;-1.118;2023-09-19T09:11:16;99256.41;;;22.40
70668;BMP280;58242;51.250;-1.118;2023-09-19T09:13:43;99243.28;;;22.54
70668;BMP280;58242;51.250;-1.118;2023-09-19T09:16:10;99245.28;;;22.69
70668;BMP280;58242;51.250;-1.118;2023-09-19T09:18:36;99258.72;;;22.80
70668;BMP280;58242;51.250;-1.118;2023-09-19T09:21:01;99260.94;;;22.84
70668;BMP280;58242;51.250;-1.118;2023-09-19T09:23:27;99253.19;;;22.83
70668;BMP280;58242;51.250;-1.118;2023-09-19T09:25:57;99273.53;;;22.79
70668;BMP280;58242;51.250;-1.118;2023-09-19T09:28:28;99258.50;;;22.71
70668;BMP280;58242;51.250;-1.118;2023-09-19T09:30:57;99262.94;;;22.65
70668;BMP280;58242;51.250;-1.118;2023-09-19T09:33:33;99256.41;;;22.59
70668;BMP280;58242;51.250;-1.118;2023-09-19T09:36:00;99259.22;;;22.56
70668;BMP280;58242;51.250;-1.118;2023-09-19T09:38:29;99250.72;;;22.50
70668;BMP280;58242;51.250;-1.118;2023-09-19T09:40:57;99241.34;;;22.55
70668;BMP280;58242;51.250;-1.118;2023-09-19T09:43:36;99265.97;;;22.67
70668;BMP280;58242;51.250;-1.118;2023-09-19T09:46:16;99264.25;;;22.76
70668;BMP280;58242;51.250;-1.118;2023-09-19T09:48:55;99253.25;;;22.80
70668;BMP280;58242;51.250;-1.118;2023-09-19T09:51:40;99229.16;;;22.78
70668;BMP280;58242;51.250;-1.118;2023-09-19T09:54:15;99244.31;;;22.79
70668;BMP280;58242;51.250;-1.118;2023-09-19T09:56:58;99226.78;;;22.80
70668;BMP280;58242;51.250;-1.118;2023-09-19T09:59:44;99233.25;;;22.86
70668;BMP280;58242;51.250;-1.118;2023-09-19T10:02:15;99227.25;;;22.94
70668;BMP280;58242;51.250;-1.118;2023-09-19T10:04:51;99230.22;;;22.99
70668;BMP280;58242;51.250;-1.118;2023-09-19T10:07:27;99236.28;;;23.07
70668;BMP280;58242;51.250;-1.118;2023-09-19T10:09:57;99236.91;;;23.14
70668;BMP280;58242;51.250;-1.118;2023-09-19T10:12:31;99221.91;;;23.22
70668;BMP280;58242;51.250;-1.118;2023-09-19T10:14:59;99239.66;;;23.30
70668;BMP280;58242;51.250;-1.118;2023-09-19T10:17:26;99246.72;;;23.27
70668;BMP280;58242;51.250;-1.118;2023-09-19T10:19:56;99251.78;;;23.29
70668;BMP280;58242;51.250;-1.118;2023-09-19T10:22:31;99238.13;;;23.29
70668;BMP280;58242;51.250;-1.118;2023-09-19T10:24:58;99252.09;;;23.31
70668;BMP280;58242;51.250;-1.118;2023-09-19T10:27:26;99243.06;;;23.33
70668;BMP280;58242;51.250;-1.118;2023-09-19T10:29:52;99253.97;;;23.33
70668;BMP280;58242;51.250;-1.118;2023-09-19T10:32:22;99261.81;;;23.32
70668;BMP280;58242;51.250;-1.118;2023-09-19T10:34:49;99248.97;;;23.32
70668;BMP280;58242;51.250;-1.118;2023-09-19T10:37:20;99252.78;;;23.34
70668;BMP280;58242;51.250;-1.118;2023-09-19T10:39:51;99267.63;;;23.33
70668;BMP280;58242;51.250;-1.118;2023-09-19T10:42:19;99242.28;;;23.33
70668;BMP280;58242;51.250;-1.118;2023-09-19T10:44:45;99248.28;;;23.28
70668;BMP280;58242;51.250;-1.118;2023-09-19T10:47:12;99245.97;;;23.27
70668;BMP280;58242;51.250;-1.118;2023-09-19T10:49:45;99249.47;;;23.27
70668;BMP280;58242;51.250;-1.118;2023-09-19T10:52:21;99245.28;;;23.23
70668;BMP280;58242;51.250;-1.118;2023-09-19T10:54:50;99257.00;;;23.20
70668;BMP280;58242;51.250;-1.118;2023-09-19T10:57:25;99253.59;;;23.16
70668;BMP280;58242;51.250;-1.118;2023-09-19T11:00:06;99242.38;;;23.14
70668;BMP280;58242;51.250;-1.118;2023-09-19T11:05:42;99246.53;;;23.18
70668;BMP280;58242;51.250;-1.118;2023-09-19T11:08:08;99241.06;;;23.18
70668;BMP280;58242;51.250;-1.118;2023-09-19T11:11:04;99240.28;;;23.18
70668;BMP280;58242;51.250;-1.118;2023-09-19T11:30:31;99238.69;;;23.20
70668;BMP280;58242;51.250;-1.118;2023-09-19T11:33:23;99248.69;;;23.27
70668;BMP280;58242;51.250;-1.118;2023-09-19T11:36:00;99245.78;;;23.33
70668;BMP280;58242;51.250;-1.118;2023-09-19T11:49:16;99225.50;;;23.66
70668;BMP280;58242;51.250;-1.118;2023-09-19T11:51:45;99217.56;;;23.71
70668;BMP280;58242;51.250;-1.118;2023-09-19T11:54:15;99229.94;;;23.75
70668;BMP280;58242;51.250;-1.118;2023-09-19T11:56:45;99222.09;;;23.77
70668;BMP280;58242;51.250;-1.118;2023-09-19T11:59:11;99228.22;;;23.81
70668;BMP280;58242;51.250;-1.118;2023-09-19T12:01:37;99219.19;;;23.84
70668;BMP280;58242;51.250;-1.118;2023-09-19T12:04:08;99225.41;;;23.84
70668;BMP280;58242;51.250;-1.118;2023-09-19T12:06:33;99217.31;;;23.81
70668;BMP280;58242;51.250;-1.118;2023-09-19T12:08:59;99199.41;;;23.80
70668;BMP280;58242;51.250;-1.118;2023-09-19T12:11:30;99208.56;;;23.86
70668;BMP280;58242;51.250;-1.118;2023-09-19T12:13:59;99220.13;;;23.93
70668;BMP280;58242;51.250;-1.118;2023-09-19T12:16:26;99209.81;;;24.01
70668;BMP280;58242;51.250;-1.118;2023-09-19T12:18:55;99211.47;;;24.10
70668;BMP280;58242;51.250;-1.118;2023-09-19T12:21:27;99205.47;;;24.15
70668;BMP280;58242;51.250;-1.118;2023-09-19T12:24:03;99196.75;;;24.20
70668;BMP280;58242;51.250;-1.118;2023-09-19T12:26:30;99203.22;;;24.26
70668;BMP280;58242;51.250;-1.118;2023-09-19T12:29:02;99202.03;;;24.39
70668;BMP280;58242;51.250;-1.118;2023-09-19T12:31:30;99199.34;;;24.51
70668;BMP280;58242;51.250;-1.118;2023-09-19T12:34:01;99201.78;;;24.61
70668;BMP280;58242;51.250;-1.118;2023-09-19T12:36:26;99210.34;;;24.63
70668;BMP280;58242;51.250;-1.118;2023-09-19T12:38:58;99203.34;;;24.62
70668;BMP280;58242;51.250;-1.118;2023-09-19T12:41:33;99214.25;;;24.62
70668;BMP280;58242;51.250;-1.118;2023-09-19T12:43:59;99190.69;;;24.68
70668;BMP280;58242;51.250;-1.118;2023-09-19T12:46:25;99209.34;;;24.69
70668;BMP280;58242;51.250;-1.118;2023-09-19T12:49:19;99207.06;;;24.68
70668;BMP280;58242;51.250;-1.118;2023-09-19T12:51:48;99210.22;;;24.67
70668;BMP280;58242;51.250;-1.118;2023-09-19T12:54:14;99200.19;;;24.64
70668;BMP280;58242;51.250;-1.118;2023-09-19T12:56:42;99200.28;;;24.60
70668;BMP280;58242;51.250;-1.118;2023-09-19T12:59:11;99201.59;;;24.56
70668;BMP280;58242;51.250;-1.118;2023-09-19T13:01:39;99210.56;;;24.56
70668;BMP280;58242;51.250;-1.118;2023-09-19T13:04:20;99212.50;;;24.56
70668;BMP280;58242;51.250;-1.118;2023-09-19T13:06:51;99203.22;;;24.53
70668;BMP280;58242;51.250;-1.118;2023-09-19T13:09:19;99217.28;;;24.52
70668;BMP280;58242;51.250;-1.118;2023-09-19T13:11:46;99197.50;;;24.48
70668;BMP280;58242;51.250;-1.118;2023-09-19T13:14:26;99198.38;;;24.45
70668;BMP280;58242;51.250;-1.118;2023-09-19T13:17:06;99198.00;;;24.43
70668;BMP280;58242;51.250;-1.118;2023-09-19T13:19:51;99201.63;;;24.40
70668;BMP280;58242;51.250;-1.118;2023-09-19T13:22:42;99190.13;;;24.33
70668;BMP280;58242;51.250;-1.118;2023-09-19T13:25:13;99187.41;;;24.33
70668;BMP280;58242;51.250;-1.118;2023-09-19T13:27:51;99177.56;;;24.35
70668;BMP280;58242;51.250;-1.118;2023-09-19T13:30:25;99184.91;;;24.38
70668;BMP280;58242;51.250;-1.118;2023-09-19T13:32:52;99167.31;;;24.39
70668;BMP280;58242;51.250;-1.118;2023-09-19T13:35:18;99183.47;;;24.46
70668;BMP280;58242;51.250;-1.118;2023-09-19T13:37:44;99176.63;;;24.54
70668;BMP280;58242;51.250;-1.118;2023-09-19T13:40:11;99187.91;;;24.56
70668;BMP280;58242;51.250;-1.118;2023-09-19T13:42:37;99188.22;;;24.58
70668;BMP280;58242;51.250;-1.118;2023-09-19T13:45:06;99190.66;;;24.56
70668;BMP280;58242;51.250;-1.118;2023-09-19T13:47:34;99192.91;;;24.45
70668;BMP280;58242;51.250;-1.118;2023-09-19T13:50:02;99198.16;;;24.52
70668;BMP280;58242;51.250;-1.118;2023-09-19T13:52:29;99184.41;;;24.55
70668;BMP280;58242;51.250;-1.118;2023-09-19T13:54:55;99198.50;;;24.54
70668;BMP280;58242;51.250;-1.118;2023-09-19T13:57:27;99197.75;;;24.53
70668;BMP280;58242;51.250;-1.118;2023-09-19T13:59:54;99195.94;;;24.47
70668;BMP280;58242;51.250;-1.118;2023-09-19T14:02:23;99210.81;;;24.46
70668;BMP280;58242;51.250;-1.118;2023-09-19T14:04:52;99198.78;;;24.44
70668;BMP280;58242;51.250;-1.118;2023-09-19T14:07:17;99202.72;;;24.43
70668;BMP280;58242;51.250;-1.118;2023-09-19T14:09:46;99208.28;;;24.39
70668;BMP280;58242;51.250;-1.118;2023-09-19T14:12:12;99190.91;;;24.34
70668;BMP280;58242;51.250;-1.118;2023-09-19T14:14:37;99202.97;;;24.20
70668;BMP280;58242;51.250;-1.118;2023-09-19T14:17:04;99212.13;;;24.14
70668;BMP280;58242;51.250;-1.118;2023-09-19T14:19:29;99209.50;;;24.11
70668;BMP280;58242;51.250;-1.118;2023-09-19T14:21:55;99209.50;;;24.11
70668;BMP280;58242;51.250;-1.118;2023-09-19T14:24:20;99222.72;;;24.12
70668;BMP280;58242;51.250;-1.118;2023-09-19T14:26:46;99226.97;;;24.13
70668;BMP280;58242;51.250;-1.118;2023-09-19T14:29:11;99217.59;;;24.14
70668;BMP280;58242;51.250;-1.118;2023-09-19T14:31:38;99218.78;;;24.13
70668;BMP280;58242;51.250;-1.118;2023-09-19T14:34:05;99212.91;;;24.15
70668;BMP280;58242;51.250;-1.118;2023-09-19T14:36:31;99203.28;;;24.10
70668;BMP280;58242;51.250;-1.118;2023-09-19T14:38:56;99196.63;;;24.11
70668;BMP280;58242;51.250;-1.118;2023-09-19T14:41:24;99195.75;;;24.14
70668;BMP280;58242;51.250;-1.118;2023-09-19T14:43:53;99199.16;;;24.18
70668;BMP280;58242;51.250;-1.118;2023-09-19T14:46:20;99202.66;;;24.18
70668;BMP280;58242;51.250;-1.118;2023-09-19T14:48:46;99214.50;;;24.12
70668;BMP280;58242;51.250;-1.118;2023-09-19T14:51:13;99195.59;;;24.05
70668;BMP280;58242;51.250;-1.118;2023-09-19T14:53:39;99181.94;;;24.05